createdAt,value
2023-05-14T00:01:18.214Z,14.80
2023-05-14T00:04:20.204Z,14.80
2023-05-14T00:07:22.056Z,14.90
2023-05-14T00:10:24.184Z,14.70
2023-05-14T00:13:26.692Z,14.60
2023-05-14T00:16:28.978Z,14.60
2023-05-14T00:19:37.126Z,14.60
2023-05-14T00:22:40.169Z,14.60
2023-05-14T00:25:43.608Z,14.60
2023-05-14T00:28:45.370Z,14.50
2023-05-14T00:31:51.887Z,14.50
2023-05-14T00:34:53.921Z,14.60
2023-05-14T00:37:55.859Z,14.60
2023-05-14T00:40:58.123Z,14.50
2023-05-14T00:44:00.157Z,14.40
2023-05-14T00:47:02.365Z,14.50
2023-05-14T00:50:04.988Z,14.40
2023-05-14T00:53:10.467Z,14.30
2023-05-14T00:56:13.655Z,14.20
2023-05-14T00:59:15.459Z,14.20
2023-05-14T01:02:21.978Z,14.10
2023-05-14T01:05:29.565Z,14.10
2023-05-14T01:09:08.316Z,14.10
2023-05-14T01:12:22.512Z,14.20
2023-05-14T01:15:29.326Z,14.00
2023-05-14T01:18:33.348Z,14.00
2023-05-14T01:21:42.507Z,13.90
2023-05-14T01:24:44.280Z,14.00
2023-05-14T01:28:09.156Z,13.90
2023-05-14T01:31:18.673Z,14.00
2023-05-14T01:34:23.478Z,13.80
2023-05-14T01:37:27.077Z,13.50
2023-05-14T01:40:33.306Z,13.40
2023-05-14T01:43:35.527Z,13.60
2023-05-14T01:46:38.947Z,13.70
2023-05-14T01:49:41.100Z,13.60
2023-05-14T01:52:44.846Z,13.60
2023-05-14T01:55:46.869Z,13.70
2023-05-14T01:58:50.391Z,13.60
2023-05-14T02:01:55.999Z,13.40
2023-05-14T02:04:58.020Z,13.50
2023-05-14T02:07:59.882Z,13.50
2023-05-14T02:11:01.740Z,13.50
2023-05-14T02:14:03.696Z,13.40
2023-05-14T02:17:10.832Z,13.50
2023-05-14T02:20:13.052Z,13.40
2023-05-14T02:23:15.090Z,13.50
2023-05-14T02:26:16.927Z,13.50
2023-05-14T02:29:19.519Z,13.50
2023-05-14T02:32:21.457Z,13.40
2023-05-14T02:35:23.526Z,13.20
2023-05-14T02:38:26.540Z,13.30
2023-05-14T02:41:28.434Z,13.20
2023-05-14T02:44:31.864Z,13.20
2023-05-14T02:47:36.136Z,13.30
2023-05-14T02:50:39.612Z,13.20
2023-05-14T02:53:41.533Z,13.20
2023-05-14T02:56:43.331Z,13.20
2023-05-14T02:59:46.697Z,13.10
2023-05-14T03:02:48.799Z,13.10
2023-05-14T03:05:53.569Z,13.10
2023-05-14T03:08:55.288Z,13.10
2023-05-14T03:11:57.059Z,13.00
2023-05-14T03:14:59.029Z,13.00
2023-05-14T03:18:01.769Z,13.00
2023-05-14T03:21:03.983Z,12.90
2023-05-14T03:24:06.973Z,13.00
2023-05-14T03:27:08.761Z,12.90
2023-05-14T03:30:11.826Z,13.00
2023-05-14T03:33:13.857Z,13.00
2023-05-14T03:36:16.603Z,13.00
2023-05-14T03:39:21.333Z,12.90
2023-05-14T03:42:24.748Z,13.00
2023-05-14T03:45:28.585Z,12.90
2023-05-14T03:48:37.325Z,12.90
2023-05-14T03:51:39.096Z,13.00
2023-05-14T03:54:41.416Z,12.80
2023-05-14T03:57:43.137Z,12.80
2023-05-14T04:00:45.847Z,12.80
2023-05-14T04:03:47.966Z,12.70
2023-05-14T04:06:50.845Z,12.70
2023-05-14T04:09:52.689Z,12.70
2023-05-14T04:13:00.287Z,12.70
2023-05-14T04:16:02.107Z,12.70
2023-05-14T04:19:05.812Z,12.70
2023-05-14T04:22:07.666Z,12.80
2023-05-14T04:25:09.612Z,12.70
2023-05-14T04:28:11.460Z,12.80
2023-05-14T04:31:14.964Z,12.80
2023-05-14T04:34:16.802Z,12.80
2023-05-14T04:37:18.629Z,12.80
2023-05-14T04:40:20.596Z,12.80
2023-05-14T04:43:22.490Z,12.70
2023-05-14T04:46:24.503Z,12.60
2023-05-14T04:49:26.611Z,12.60
2023-05-14T04:52:28.667Z,12.60
2023-05-14T04:55:30.609Z,12.60
2023-05-14T04:58:34.557Z,12.50
2023-05-14T05:01:37.247Z,12.50
2023-05-14T05:04:39.411Z,12.50
2023-05-14T05:07:43.444Z,12.60
2023-05-14T05:10:45.366Z,12.60
2023-05-14T05:13:47.136Z,12.60
2023-05-14T05:16:55.005Z,12.60
2023-05-14T05:19:56.907Z,12.60
2023-05-14T05:22:59.536Z,12.60
2023-05-14T05:26:02.973Z,12.70
2023-05-14T05:29:05.077Z,12.70
2023-05-14T05:32:10.158Z,12.80
2023-05-14T05:35:12.252Z,12.90
2023-05-14T05:38:17.813Z,12.90
2023-05-14T05:41:19.506Z,12.90
2023-05-14T05:44:21.416Z,12.90
2023-05-14T05:47:55.064Z,13.00
2023-05-14T05:50:56.967Z,13.10
2023-05-14T05:53:58.718Z,13.00
2023-05-14T05:57:01.000Z,13.00
2023-05-14T06:00:12.936Z,13.00
2023-05-14T06:03:14.852Z,13.00
2023-05-14T06:06:16.802Z,13.00
2023-05-14T06:09:20.232Z,13.10
2023-05-14T06:12:22.056Z,13.20
2023-05-14T06:15:23.898Z,13.20
2023-05-14T06:18:25.693Z,13.20
2023-05-14T06:21:33.769Z,13.20
2023-05-14T06:24:36.328Z,13.30
2023-05-14T06:27:38.366Z,13.30
2023-05-14T06:30:41.011Z,13.30
2023-05-14T06:33:48.036Z,13.30
2023-05-14T06:36:49.848Z,13.30
2023-05-14T06:39:51.662Z,13.30
2023-05-14T06:42:53.515Z,13.40
2023-05-14T06:45:55.647Z,13.40
2023-05-14T06:48:59.327Z,13.40
2023-05-14T06:52:02.669Z,13.50
2023-05-14T06:55:04.768Z,13.40
2023-05-14T06:58:08.519Z,13.40
2023-05-14T07:01:10.782Z,13.50
2023-05-14T07:04:13.390Z,13.40
2023-05-14T07:07:18.298Z,13.50
2023-05-14T07:10:20.117Z,13.40
2023-05-14T07:13:21.912Z,13.50
2023-05-14T07:16:23.918Z,13.50
2023-05-14T07:19:28.646Z,13.50
2023-05-14T07:22:30.586Z,13.60
2023-05-14T07:25:32.872Z,13.50
2023-05-14T07:28:35.072Z,13.60
2023-05-14T07:31:36.970Z,13.60
2023-05-14T07:34:38.947Z,13.70
2023-05-14T07:37:41.230Z,13.70
2023-05-14T07:40:43.522Z,13.70
2023-05-14T07:43:45.649Z,13.80
2023-05-14T07:46:48.617Z,13.80
2023-05-14T07:49:54.705Z,13.90
2023-05-14T07:52:57.001Z,13.90
2023-05-14T07:56:00.165Z,13.90
2023-05-14T07:59:02.095Z,13.90
2023-05-14T08:02:04.045Z,13.90
2023-05-14T08:05:07.126Z,13.90
2023-05-14T08:08:09.047Z,13.90
2023-05-14T08:11:15.818Z,14.00
2023-05-14T08:14:17.768Z,14.10
2023-05-14T08:17:21.239Z,14.10
2023-05-14T08:20:24.256Z,14.10
2023-05-14T08:23:27.104Z,14.10
2023-05-14T08:26:28.998Z,14.20
2023-05-14T08:29:33.898Z,14.30
2023-05-14T08:32:35.987Z,14.30
2023-05-14T08:35:37.908Z,14.30
2023-05-14T08:38:39.732Z,14.40
2023-05-14T08:41:41.815Z,14.40
2023-05-14T08:44:47.011Z,14.50
2023-05-14T08:47:53.023Z,14.60
2023-05-14T08:50:55.496Z,14.80
2023-05-14T08:54:02.436Z,14.90
2023-05-14T08:57:04.978Z,15.00
2023-05-14T09:00:13.652Z,15.10
2023-05-14T09:03:16.244Z,15.20
2023-05-14T09:06:23.512Z,15.30
2023-05-14T09:09:26.060Z,15.50
2023-05-14T09:12:33.085Z,15.60
2023-05-14T09:15:36.417Z,15.90
2023-05-14T09:18:39.711Z,16.00
2023-05-14T09:21:42.355Z,16.20
2023-05-14T09:24:44.924Z,16.20
2023-05-14T09:27:50.895Z,16.30
2023-05-14T09:34:30.726Z,16.60
2023-05-14T09:37:37.636Z,16.70
2023-05-14T09:40:39.592Z,16.90
2023-05-14T09:43:41.376Z,17.00
2023-05-14T09:46:43.153Z,17.20
2023-05-14T09:49:49.092Z,17.20
2023-05-14T09:52:50.953Z,17.40
2023-05-14T09:55:52.974Z,17.50
2023-05-14T09:58:55.101Z,17.60
2023-05-14T10:01:58.332Z,17.60
2023-05-14T10:05:04.623Z,17.70
2023-05-14T10:08:14.514Z,17.80
2023-05-14T10:11:25.099Z,17.90
2023-05-14T10:14:37.151Z,18.00
2023-05-14T10:17:44.118Z,18.10
2023-05-14T10:20:52.761Z,18.10
2023-05-14T10:23:54.854Z,18.20
2023-05-14T10:27:00.416Z,18.30
2023-05-14T10:30:10.246Z,18.30
2023-05-14T10:33:15.583Z,18.40
2023-05-14T10:36:18.689Z,18.40
2023-05-14T10:39:25.197Z,18.40
2023-05-14T10:42:30.203Z,18.60
2023-05-14T10:45:40.451Z,18.60
2023-05-14T10:48:44.223Z,18.60
2023-05-14T10:51:50.984Z,18.60
2023-05-14T10:54:57.003Z,18.60
2023-05-14T10:58:01.396Z,18.60
2023-05-14T11:01:03.385Z,18.70
2023-05-14T11:04:06.028Z,18.70
2023-05-14T11:07:11.242Z,18.90
2023-05-14T11:10:22.750Z,18.90
2023-05-14T11:13:27.090Z,19.00
2023-05-14T11:16:31.767Z,19.10
2023-05-14T11:19:33.854Z,19.20
2023-05-14T11:22:40.018Z,19.30
2023-05-14T11:25:46.162Z,19.30
2023-05-14T11:28:48.820Z,19.40
2023-05-14T11:31:50.876Z,19.30
2023-05-14T11:34:53.182Z,19.20
2023-05-14T11:37:54.967Z,19.20
2023-05-14T11:41:00.310Z,19.10
2023-05-14T11:44:03.410Z,19.00
2023-05-14T11:47:12.668Z,19.10
2023-05-14T11:50:14.523Z,19.10
2023-05-14T11:53:20.208Z,19.10
2023-05-14T11:56:22.642Z,19.10
2023-05-14T11:59:43.307Z,19.20
2023-05-14T12:02:45.504Z,19.20
2023-05-14T12:06:02.132Z,19.20
2023-05-14T12:09:06.020Z,19.10
2023-05-14T12:12:14.045Z,19.10
2023-05-14T12:15:17.233Z,18.90
2023-05-14T12:18:24.760Z,18.90
2023-05-14T12:21:27.994Z,18.80
2023-05-14T12:24:31.380Z,18.70
2023-05-14T12:27:37.790Z,18.70
2023-05-14T12:30:40.598Z,18.70
2023-05-14T12:33:42.487Z,18.60
2023-05-14T12:36:45.364Z,18.60
2023-05-14T12:39:47.142Z,18.70
2023-05-14T12:42:49.192Z,18.80
2023-05-14T12:45:51.055Z,18.90
2023-05-14T12:48:53.662Z,19.00
2023-05-14T12:52:07.819Z,19.10
2023-05-14T12:55:17.322Z,19.20
2023-05-14T12:58:19.077Z,19.40
2023-05-14T13:01:22.445Z,19.40
2023-05-14T13:04:24.192Z,19.40
2023-05-14T13:07:26.049Z,19.50
2023-05-14T13:10:27.838Z,19.50
2023-05-14T13:13:31.344Z,19.60
2023-05-14T13:17:03.558Z,19.70
2023-05-14T13:20:07.464Z,19.70
2023-05-14T13:23:09.264Z,19.70
2023-05-14T13:26:11.848Z,19.80
2023-05-14T13:29:13.773Z,19.90
2023-05-14T13:32:15.805Z,20.00
2023-05-14T13:35:17.785Z,20.10
2023-05-14T13:38:19.516Z,20.00
2023-05-14T13:41:21.785Z,19.80
2023-05-14T13:44:23.941Z,19.80
2023-05-14T13:47:25.962Z,19.80
2023-05-14T13:50:32.425Z,19.70
2023-05-14T13:53:34.480Z,19.60
2023-05-14T13:56:41.376Z,19.50
2023-05-14T13:59:45.158Z,19.40
2023-05-14T14:02:47.120Z,19.30
2023-05-14T14:05:49.258Z,19.30
2023-05-14T14:08:51.195Z,19.30
2023-05-14T14:11:53.543Z,19.10
2023-05-14T14:14:55.670Z,19.10
2023-05-14T14:17:57.697Z,19.00
2023-05-14T14:21:04.383Z,18.90
2023-05-14T14:24:06.888Z,18.80
2023-05-14T14:27:09.655Z,18.80
2023-05-14T14:30:15.772Z,18.80
2023-05-14T14:33:19.328Z,18.70
2023-05-14T14:36:21.110Z,18.80
2023-05-14T14:39:25.393Z,18.80
2023-05-14T14:42:27.210Z,18.90
2023-05-14T14:45:31.872Z,18.90
2023-05-14T14:48:37.626Z,19.00
2023-05-14T14:51:41.191Z,19.10
2023-05-14T14:54:43.248Z,19.10
2023-05-14T14:57:45.215Z,19.10
2023-05-14T15:01:01.384Z,19.00
2023-05-14T15:04:03.823Z,19.00
2023-05-14T15:07:06.406Z,19.00
2023-05-14T15:10:08.699Z,19.00
2023-05-14T15:13:11.398Z,19.00
2023-05-14T15:16:13.817Z,19.10
2023-05-14T15:19:15.756Z,19.00
2023-05-14T15:22:18.449Z,19.00
2023-05-14T15:25:21.577Z,19.10
2023-05-14T15:28:24.372Z,19.10
2023-05-14T15:31:26.427Z,19.10
2023-05-14T15:34:28.320Z,19.10
2023-05-14T15:37:41.005Z,19.20
2023-05-14T15:40:43.484Z,19.10
2023-05-14T15:43:45.443Z,19.10
2023-05-14T15:46:47.282Z,19.00
2023-05-14T15:49:49.519Z,19.00
2023-05-14T15:52:52.332Z,19.00
2023-05-14T15:55:56.475Z,19.00
2023-05-14T15:59:00.781Z,19.00
2023-05-14T16:02:02.564Z,19.00
2023-05-14T16:05:10.617Z,19.00
2023-05-14T16:08:12.517Z,18.90
2023-05-14T16:11:15.089Z,19.00
2023-05-14T16:14:18.446Z,19.00
2023-05-14T16:17:20.351Z,19.00
2023-05-14T16:20:23.205Z,19.00
2023-05-14T16:23:25.564Z,19.00
2023-05-14T16:26:27.463Z,19.00
2023-05-14T16:29:29.381Z,18.90
2023-05-14T16:32:31.473Z,19.00
2023-05-14T16:35:38.097Z,19.00
2023-05-14T16:38:52.338Z,19.00
2023-05-14T16:42:03.225Z,19.00
2023-05-14T16:45:05.092Z,19.00
2023-05-14T16:48:07.179Z,19.00
2023-05-14T16:51:09.824Z,18.90
2023-05-14T16:54:11.718Z,18.90
2023-05-14T16:57:14.839Z,18.80
2023-05-14T17:00:23.838Z,18.80
2023-05-14T17:03:25.603Z,18.80
2023-05-14T17:06:27.442Z,18.70
2023-05-14T17:09:29.237Z,18.70
2023-05-14T17:12:31.857Z,18.70
2023-05-14T17:22:45.992Z,18.50
2023-05-14T17:25:48.071Z,18.50
2023-05-14T17:28:50.665Z,18.40
2023-05-14T17:31:57.390Z,18.40
2023-05-14T17:34:59.514Z,18.40
2023-05-14T17:38:02.639Z,18.40
2023-05-14T17:41:07.643Z,18.40
2023-05-14T17:44:12.692Z,18.40
2023-05-14T17:47:14.991Z,18.40
2023-05-14T17:50:17.514Z,18.30
2023-05-14T17:53:19.520Z,18.30
2023-05-14T17:56:23.094Z,18.20
2023-05-14T17:59:26.945Z,18.20
2023-05-14T18:02:34.738Z,18.20
2023-05-14T18:05:36.902Z,18.10
2023-05-14T18:08:38.844Z,18.00
2023-05-14T18:11:40.618Z,18.00
2023-05-14T18:14:45.772Z,17.90
2023-05-14T18:17:47.817Z,17.80
2023-05-14T18:20:51.821Z,17.80
2023-05-14T18:23:53.557Z,17.80
2023-05-14T18:26:55.394Z,17.80
2023-05-14T18:29:57.604Z,17.80
2023-05-14T18:32:59.921Z,17.80
2023-05-14T18:36:02.274Z,17.70
2023-05-14T18:39:08.810Z,17.70
2023-05-14T18:42:10.818Z,17.70
2023-05-14T18:45:12.920Z,17.70
2023-05-14T18:48:15.483Z,17.70
2023-05-14T18:51:19.569Z,17.60
2023-05-14T18:54:21.341Z,17.70
2023-05-14T18:57:23.732Z,17.60
2023-05-14T19:00:25.694Z,17.60
2023-05-14T19:03:27.678Z,17.50
2023-05-14T19:06:29.693Z,17.60
2023-05-14T19:09:31.595Z,17.50
2023-05-14T19:12:33.490Z,17.60
2023-05-14T19:15:35.426Z,17.50
2023-05-14T19:18:37.398Z,17.60
2023-05-14T19:21:39.180Z,17.70
2023-05-14T19:24:41.021Z,17.70
2023-05-14T19:27:43.842Z,17.60
2023-05-14T19:30:45.743Z,17.60
2023-05-14T19:33:50.611Z,17.60
2023-05-14T19:36:52.470Z,17.50
2023-05-14T19:39:54.326Z,17.50
2023-05-14T19:42:56.328Z,17.60
2023-05-14T19:46:01.855Z,17.40
2023-05-14T19:49:03.689Z,17.40
2023-05-14T19:52:07.347Z,17.40
2023-05-14T19:55:09.324Z,17.40
2023-05-14T19:58:15.468Z,17.30
2023-05-14T20:01:17.592Z,17.20
2023-05-14T20:04:19.812Z,17.20
2023-05-14T20:07:21.599Z,17.20
2023-05-14T20:10:24.283Z,17.20
2023-05-14T20:13:26.324Z,17.10
2023-05-14T20:16:28.741Z,17.00
2023-05-14T20:19:31.018Z,17.00
2023-05-14T20:22:38.032Z,17.00
2023-05-14T20:25:39.795Z,17.00
2023-05-14T20:28:48.069Z,16.90
2023-05-14T20:31:50.089Z,16.80
2023-05-14T20:34:52.047Z,16.80
2023-05-14T20:37:54.413Z,16.80
2023-05-14T20:41:01.039Z,16.80
2023-05-14T20:44:02.885Z,16.70
2023-05-14T20:47:05.793Z,16.70
2023-05-14T20:50:08.226Z,16.70
2023-05-14T20:53:10.986Z,16.60
2023-05-14T20:56:23.537Z,16.50
2023-05-14T20:59:26.363Z,16.50
2023-05-14T21:02:29.185Z,16.50
2023-05-14T21:05:33.778Z,16.40
2023-05-14T21:08:37.700Z,16.40
2023-05-14T21:11:41.108Z,16.40
2023-05-14T21:14:42.761Z,16.40
2023-05-14T21:17:46.123Z,16.40
2023-05-14T21:20:47.956Z,16.40
2023-05-14T21:23:50.745Z,16.40
2023-05-14T21:26:53.663Z,16.20
2023-05-14T21:29:55.660Z,16.20
2023-05-14T21:32:57.546Z,16.20
2023-05-14T21:36:00.103Z,16.20
2023-05-14T21:39:01.838Z,16.10
2023-05-14T21:42:04.013Z,16.00
2023-05-14T21:45:06.585Z,16.00
2023-05-14T21:48:10.158Z,16.00
2023-05-14T21:51:12.158Z,16.00
2023-05-14T21:54:14.225Z,16.00
2023-05-14T21:57:26.243Z,16.00
2023-05-14T22:00:29.824Z,16.00
2023-05-14T22:03:31.596Z,16.00
2023-05-14T22:06:33.699Z,15.90
2023-05-14T22:09:38.563Z,15.90
2023-05-14T22:12:42.222Z,15.80
2023-05-14T22:15:44.169Z,15.70
2023-05-14T22:18:47.187Z,15.70
2023-05-14T22:21:49.121Z,15.70
2023-05-14T22:24:50.875Z,15.60
2023-05-14T22:27:52.618Z,15.60
2023-05-14T22:31:01.189Z,15.60
2023-05-14T22:34:03.198Z,15.50
2023-05-14T22:37:06.402Z,15.50
2023-05-14T22:40:09.120Z,15.50
2023-05-14T22:43:12.645Z,15.40
2023-05-14T22:46:14.446Z,15.40
2023-05-14T22:49:16.634Z,15.40
2023-05-14T22:52:21.455Z,15.30
2023-05-14T22:55:23.801Z,15.30
2023-05-14T22:58:27.970Z,15.20
2023-05-14T23:01:38.008Z,15.20
2023-05-14T23:04:40.676Z,15.10
2023-05-14T23:07:42.838Z,15.10
2023-05-14T23:10:44.625Z,15.00
2023-05-14T23:13:46.911Z,15.00
2023-05-14T23:16:48.921Z,15.00
2023-05-14T23:19:50.809Z,14.90
2023-05-14T23:22:54.162Z,15.00
2023-05-14T23:25:56.440Z,14.90
2023-05-14T23:28:58.193Z,14.90
2023-05-14T23:31:59.995Z,14.80
2023-05-14T23:35:01.930Z,14.80
2023-05-14T23:38:07.725Z,14.80
2023-05-14T23:41:09.904Z,14.70
2023-05-14T23:44:11.715Z,14.70
2023-05-14T23:47:14.634Z,14.70
2023-05-14T23:50:21.226Z,14.60
2023-05-14T23:53:23.061Z,14.60
2023-05-14T23:56:26.289Z,14.60
2023-05-14T23:59:28.634Z,14.50
